EPWALGKO

Guest
Details From EPWA - Warsaw Okecie - Frederic Chopin
To LGKO - Kos
Flight Number -
Tags Generated
Created
Modified
Stats Distance 959 nm / 1,776 km
Max Altitude 0 ft / 0 m
Waypoints 6
Social Downloads 0
Likes 0
Share VATSIM

Download

Looking for another format? Having issues loading an existing format? Contact us
Advertisement - Login to hide

Notes

Generated

Route

EPWA OBENO LUMIT BELGI KOS09 LGKO

ID Type Via Altitude Latitude Longitude Leg Dist Tot Dist Heading (true) Name
O EPWA APT - 0 ft / 0 m 52.17148˚ 20.94671˚ - 0 nm - -
OBENO FIX - 0 ft / 0 m 48.60796˚ 22.64128˚ 223 nm 223 nm 162° / 164° -
LUMIT FIX - 0 ft / 0 m 44.37385˚ 24.43494˚ 264 nm 488 nm 163° / 164° -
BELGI FIX - 0 ft / 0 m 40.50000˚ 25.88333˚ 241 nm 729 nm 164° / 165° -
KOS09 FIX - 0 ft / 0 m 36.92393˚ 27.00488˚ 221 nm 950 nm 166° / 167° -
O LGKO APT - 0 ft / 0 m 36.80364˚ 27.08364˚ 8 nm 959 nm 152° / 152° -

Altitude Profile

Advertisement - Login to hide

Weather


0- 5 10 15 20 25 30 35+ Temperature / ° C

Clouds and Precipitation
Forecast for 2017-12-15 06:00 UTC. Updated an hour ago

Ground ~20,000 ft ~40,000 ft Winds

EPWA

Details ICAO EPWA (WAW)
Name WARSZAWA Okecie
Region Poland
Timezone Europe/Warsaw (UTC+1.0)
Stats Elevation 328 ft / 100 m (AMSL)
Location 52.165091° 20.966923°
Runways 2
Magnetic Variation 5.802° E

METAR

EPWA 150630Z 17006KT CAVOK M00/M02 Q0998 NOSIG

Decode

TAF

TAF EPWA 150530Z 1506/1606 15006KT 9999 SCT040 BECMG 1511/1513 BKN006 TEMPO 1513/1518 2000 RASN BR BKN003 BECMG 1515/1517 26010KT PROB40 1518/1606 3000 -RA BR BKN003

Decode

Departure Runways

ID Width Length Bearing (true) Bearing (mag) Surface Threshold Offset Overrun Length
11 164 ft / 50 m 9,163 ft / 2,793 m 114.64° 108.84° Asphalt 0 ft / 0 m 476 ft / 145 m
15 197 ft / 60 m 12,112 ft / 3,692 m 151.85° 146.05° Asphalt 0 ft / 0 m 0 ft / 0 m
29 164 ft / 50 m 9,163 ft / 2,793 m 294.67° 288.87° Asphalt 1,608 ft / 490 m 0 ft / 0 m
33 197 ft / 60 m 12,112 ft / 3,692 m 331.87° 326.07° Asphalt 0 ft / 0 m 0 ft / 0 m

LGKO

Details ICAO LGKO (KGS)
Name KOS
Region Greece
Timezone Europe/Athens (UTC+2.0)
Stats Elevation 412 ft / 126 m (AMSL)
Location 36.794403° 27.090764°
Runways 1
Magnetic Variation 4.723° E

METAR

LGKO 150620Z VRB03KT 9999 FEW018 SCT030 14/10 Q1017

Decode

TAF

TAF LGKO 150500Z 1506/1606 24010KT 9999 SCT018 BECMG 1518/1520 19012KT SCT020 SCT040 PROB30 TEMPO 1520/1603 5000 RA SCT018 BKN030

Decode

Destination Runways

ID Width Length Bearing (true) Bearing (mag) Surface Threshold Offset Overrun Length
14 148 ft / 45 m 7,923 ft / 2,415 m 148.29° 143.57° Asphalt 0 ft / 0 m 240 ft / 73 m
32 148 ft / 45 m 7,923 ft / 2,415 m 328.30° 323.58° Asphalt 0 ft / 0 m 205 ft / 62 m

Popular Alternatives